Terminal Aerodrome Forecast
Issued by NWS

Home | Current Version | Previous Version | Graphics & Text | Print | Product List | Glossary On
Versions: 1 2 3 4 5 6 7 8 9 10 11 12 13 14 15 16 17 18 19
000
FTUS43 KOAX 172320
TAFCDR
TAF
KCDR 172320Z 1800/1824 05010KT 4SM -RA OVC015
     FM180600 04007KT 4SM BR OVC007
     FM181600 33007KT P6SM SCT007 OVC015=

USA.gov is the U.S. government's official web portal to all federal, state and local government web resources and services.